createdAt,value
2023-01-04T00:02:47.856Z,14.35
2023-01-04T00:11:02.001Z,13.18
2023-01-04T00:15:07.886Z,13.05
2023-01-04T00:19:13.531Z,14.88
2023-01-04T00:23:16.480Z,14.57
2023-01-04T00:27:19.606Z,13.68
2023-01-04T00:31:25.238Z,13.88
2023-01-04T00:35:45.426Z,13.05
2023-01-04T00:39:49.384Z,13.98
2023-01-04T00:43:52.458Z,12.50
2023-01-04T00:47:57.839Z,13.32
2023-01-04T00:52:01.861Z,13.52
2023-01-04T00:56:05.400Z,13.73
2023-01-04T01:00:09.961Z,13.60
2023-01-04T01:04:17.537Z,14.32
2023-01-04T01:08:26.343Z,14.70
2023-01-04T01:12:29.690Z,13.00
2023-01-04T01:16:53.900Z,14.10
2023-01-04T01:25:00.337Z,11.75
2023-01-04T01:29:03.659Z,12.93
2023-01-04T01:33:06.783Z,12.05
2023-01-04T01:37:11.269Z,12.50
2023-01-04T01:41:20.073Z,13.25
2023-01-04T01:45:32.879Z,12.25
2023-01-04T01:53:48.191Z,12.35
2023-01-04T01:57:52.624Z,12.18
2023-01-04T02:01:56.261Z,12.02
2023-01-04T02:06:02.880Z,12.73
2023-01-04T02:10:08.713Z,11.93
2023-01-04T02:14:30.718Z,13.40
2023-01-04T02:18:44.376Z,13.10
2023-01-04T02:23:20.335Z,10.73
2023-01-04T02:27:47.699Z,10.98
2023-01-04T02:31:55.631Z,16.25
2023-01-04T02:36:03.831Z,12.57
2023-01-04T02:40:18.246Z,12.38
2023-01-04T02:44:44.133Z,12.45
2023-01-04T02:49:06.137Z,9.85
2023-01-04T02:53:13.366Z,10.60
2023-01-04T02:57:38.789Z,9.77
2023-01-04T03:02:16.685Z,10.30
2023-01-04T03:06:27.540Z,11.50
2023-01-04T03:10:40.971Z,11.02
2023-01-04T03:14:50.274Z,12.55
2023-01-04T03:18:57.974Z,12.02
2023-01-04T03:23:32.992Z,13.93
2023-01-04T03:27:53.419Z,11.73
2023-01-04T03:32:18.032Z,13.23
2023-01-04T03:36:30.569Z,11.15
2023-01-04T03:40:54.539Z,12.15
2023-01-04T03:45:26.013Z,10.40
2023-01-04T03:49:35.201Z,11.48
2023-01-04T03:53:45.648Z,12.88
2023-01-04T03:57:50.880Z,14.25
2023-01-04T04:01:54.539Z,11.82
2023-01-04T04:06:14.981Z,9.93
2023-01-04T04:10:18.447Z,11.50
2023-01-04T04:14:23.300Z,11.27
2023-01-04T04:18:26.230Z,12.68
2023-01-04T04:22:29.406Z,12.63
2023-01-04T04:26:32.908Z,12.70
2023-01-04T04:30:37.532Z,11.15
2023-01-04T04:34:40.989Z,14.20
2023-01-04T04:38:44.164Z,13.10
2023-01-04T04:42:47.594Z,12.45
2023-01-04T04:46:52.414Z,12.70
2023-01-04T04:50:55.378Z,12.80
2023-01-04T04:54:58.425Z,14.75
2023-01-04T04:59:01.599Z,12.68
2023-01-04T05:03:06.173Z,14.18
2023-01-04T05:07:12.591Z,11.00
2023-01-04T05:11:16.535Z,13.75
2023-01-04T05:15:19.666Z,13.60
2023-01-04T05:19:24.245Z,13.95
2023-01-04T05:23:27.432Z,13.65
2023-01-04T05:27:30.518Z,10.82
2023-01-04T05:31:34.002Z,12.25
2023-01-04T05:35:39.147Z,13.95
2023-01-04T05:39:42.076Z,13.88
2023-01-04T05:43:45.240Z,12.65
2023-01-04T05:47:51.374Z,10.50
2023-01-04T05:51:55.855Z,12.30
2023-01-04T05:55:58.793Z,11.35
2023-01-04T06:00:01.893Z,10.80
2023-01-04T06:04:05.130Z,13.43
2023-01-04T06:08:09.672Z,10.73
2023-01-04T06:12:14.756Z,13.70
2023-01-04T06:16:17.944Z,12.50
2023-01-04T06:20:21.436Z,10.90
2023-01-04T06:24:26.271Z,10.15
2023-01-04T06:28:34.210Z,13.20
2023-01-04T06:32:40.238Z,12.50
2023-01-04T06:36:43.556Z,13.68
2023-01-04T06:40:48.111Z,11.02
2023-01-04T06:44:51.210Z,11.43
2023-01-04T06:48:54.925Z,12.15
2023-01-04T06:52:58.142Z,13.82
2023-01-04T06:57:02.792Z,12.05
2023-01-04T07:01:06.633Z,12.48
2023-01-04T07:05:10.542Z,10.95
2023-01-04T07:09:13.669Z,10.48
2023-01-04T07:13:18.232Z,10.93
2023-01-04T07:17:26.438Z,10.48
2023-01-04T07:21:33.102Z,11.85
2023-01-04T07:25:36.684Z,12.52
2023-01-04T07:29:44.160Z,10.27
2023-01-04T07:33:50.909Z,11.80
2023-01-04T07:43:16.141Z,10.40
2023-01-04T07:47:21.061Z,10.25
2023-01-04T07:51:24.325Z,10.93
2023-01-04T07:55:27.826Z,14.38
2023-01-04T07:59:31.111Z,13.45
2023-01-04T08:03:35.604Z,13.80
2023-01-04T08:07:38.524Z,13.55
2023-01-04T08:11:42.673Z,11.32
2023-01-04T08:15:46.156Z,16.25
2023-01-04T08:19:50.533Z,12.25
2023-01-04T08:23:54.728Z,10.80
2023-01-04T08:27:58.002Z,8.00
2023-01-04T08:32:01.189Z,10.98
2023-01-04T08:36:14.604Z,8.23
2023-01-04T08:40:17.856Z,9.18
2023-01-04T08:44:22.311Z,9.98
2023-01-04T08:48:25.753Z,10.98
2023-01-04T08:52:30.399Z,12.05
2023-01-04T08:56:36.229Z,8.60
2023-01-04T09:00:39.539Z,7.93
2023-01-04T09:04:42.870Z,12.18
2023-01-04T09:08:50.014Z,10.75
2023-01-04T09:12:53.169Z,10.48
2023-01-04T09:16:56.491Z,11.23
2023-01-04T09:21:01.648Z,10.73
2023-01-04T09:25:07.442Z,12.70
2023-01-04T09:29:12.657Z,9.43
2023-01-04T09:33:15.925Z,9.80
2023-01-04T09:37:19.296Z,9.35
2023-01-04T09:41:27.568Z,8.65
2023-01-04T09:45:30.931Z,9.50
2023-01-04T09:49:38.526Z,8.85
2023-01-04T09:53:47.000Z,10.13
2023-01-04T09:57:57.712Z,9.88
2023-01-04T10:02:05.903Z,7.90
2023-01-04T10:06:15.973Z,7.75
2023-01-04T10:10:31.897Z,7.35
2023-01-04T10:14:51.414Z,9.35
2023-01-04T10:19:28.687Z,7.95
2023-01-04T10:23:39.448Z,8.07
2023-01-04T10:27:54.237Z,6.40
2023-01-04T10:32:05.994Z,6.13
2023-01-04T10:36:19.523Z,6.30
2023-01-04T10:40:22.983Z,6.25
2023-01-04T10:44:35.665Z,7.72
2023-01-04T10:48:45.869Z,7.68
2023-01-04T10:52:53.156Z,7.20
2023-01-04T10:57:07.139Z,9.05
2023-01-04T11:01:19.564Z,6.63
2023-01-04T11:05:30.668Z,7.43
2023-01-04T11:09:40.035Z,7.88
2023-01-04T11:13:43.470Z,6.60
2023-01-04T11:17:53.083Z,7.10
2023-01-04T11:22:07.372Z,6.80
2023-01-04T11:26:17.214Z,6.88
2023-01-04T11:30:24.061Z,5.50
2023-01-04T11:34:45.955Z,4.32
2023-01-04T11:38:58.473Z,5.07
2023-01-04T11:43:18.995Z,3.20
2023-01-04T11:47:26.782Z,4.78
2023-01-04T11:51:39.951Z,4.55
2023-01-04T11:55:44.631Z,4.38
2023-01-04T12:00:10.743Z,4.28
2023-01-04T12:04:36.880Z,4.13
2023-01-04T12:12:50.185Z,3.88
2023-01-04T12:17:01.320Z,5.03
2023-01-04T12:21:07.653Z,4.72
2023-01-04T12:25:30.527Z,3.70
2023-01-04T12:29:55.189Z,5.28
2023-01-04T12:33:59.989Z,5.47
2023-01-04T12:38:03.690Z,4.78
2023-01-04T12:42:23.292Z,4.95
2023-01-04T12:47:00.197Z,5.30
2023-01-04T12:51:33.549Z,6.30
2023-01-04T12:56:01.181Z,5.18
2023-01-04T13:00:07.642Z,4.80
2023-01-04T13:04:39.331Z,6.82
2023-01-04T13:08:45.888Z,5.63
2023-01-04T13:13:22.407Z,6.18
2023-01-04T13:17:28.224Z,5.93
2023-01-04T13:21:39.684Z,5.20
2023-01-04T13:25:42.924Z,6.07
2023-01-04T13:29:46.985Z,5.63
2023-01-04T13:33:50.314Z,5.28
2023-01-04T13:37:54.842Z,5.20
2023-01-04T13:42:00.196Z,5.22
2023-01-04T13:46:16.393Z,6.53
2023-01-04T13:50:29.595Z,6.03
2023-01-04T13:54:35.606Z,6.05
2023-01-04T13:58:39.150Z,5.70
2023-01-04T14:02:42.506Z,7.03
2023-01-04T14:06:48.728Z,5.43
2023-01-04T14:10:53.416Z,6.03
2023-01-04T14:15:01.408Z,5.93
2023-01-04T14:19:43.765Z,5.95
2023-01-04T14:23:46.741Z,5.47
2023-01-04T14:27:52.680Z,5.45
2023-01-04T14:31:56.473Z,6.88
2023-01-04T14:36:04.617Z,5.75
2023-01-04T14:40:16.561Z,5.07
2023-01-04T14:44:22.980Z,7.17
2023-01-04T14:48:26.431Z,7.18
2023-01-04T14:52:30.345Z,8.63
2023-01-04T14:56:33.631Z,9.82
2023-01-04T15:00:38.234Z,10.18
2023-01-04T15:04:41.637Z,10.48
2023-01-04T15:08:45.218Z,9.38
2023-01-04T15:12:49.516Z,9.43
2023-01-04T15:16:54.251Z,7.78
2023-01-04T15:20:57.626Z,11.18
2023-01-04T15:25:01.018Z,11.73
2023-01-04T15:29:07.131Z,9.70
2023-01-04T15:33:12.409Z,16.30
2023-01-04T15:37:20.084Z,26.58
2023-01-04T15:41:44.174Z,11.20
2023-01-04T15:45:48.589Z,7.97
2023-01-04T15:49:53.250Z,7.97
2023-01-04T15:53:57.146Z,12.75
2023-01-04T15:58:00.223Z,12.07
2023-01-04T16:02:03.731Z,10.80
2023-01-04T16:06:10.727Z,9.05
2023-01-04T16:10:14.078Z,8.75
2023-01-04T16:14:17.056Z,8.32
2023-01-04T16:18:20.582Z,8.57
2023-01-04T16:35:35.706Z,9.32
2023-01-04T16:40:08.647Z,9.55
2023-01-04T16:44:28.722Z,8.25
2023-01-04T16:48:32.366Z,8.77
2023-01-04T16:52:39.688Z,8.88
2023-01-04T16:57:02.983Z,7.93
2023-01-04T17:01:23.981Z,5.82
2023-01-04T17:05:38.087Z,6.80
2023-01-04T17:10:01.092Z,5.25
2023-01-04T17:14:09.977Z,6.93
2023-01-04T17:18:24.324Z,9.25
2023-01-04T17:26:56.543Z,9.07
2023-01-04T17:35:30.603Z,6.70
2023-01-04T17:39:33.813Z,7.47
2023-01-04T17:43:37.300Z,7.72
2023-01-04T17:47:43.006Z,7.80
2023-01-04T17:51:47.522Z,8.13
2023-01-04T17:55:50.579Z,7.68
2023-01-04T17:59:54.703Z,9.07
2023-01-04T18:04:00.484Z,8.15
2023-01-04T18:08:03.880Z,8.73
2023-01-04T18:12:07.405Z,7.28
2023-01-04T18:16:29.536Z,9.48
2023-01-04T18:20:34.882Z,9.03
2023-01-04T18:24:39.207Z,8.40
2023-01-04T18:28:45.635Z,8.13
2023-01-04T18:32:48.900Z,7.28
2023-01-04T18:36:55.299Z,9.02
2023-01-04T18:40:58.583Z,7.20
2023-01-04T18:45:02.215Z,8.40
2023-01-04T18:49:10.210Z,9.07
2023-01-04T18:53:20.859Z,7.53
2023-01-04T18:57:24.735Z,10.85
2023-01-04T19:01:33.652Z,9.27
2023-01-04T19:05:41.454Z,10.40
2023-01-04T19:09:47.522Z,10.50
2023-01-04T19:13:55.296Z,7.55
2023-01-04T19:18:09.158Z,6.07
2023-01-04T19:22:17.305Z,4.95
2023-01-04T19:26:29.209Z,4.75
2023-01-04T19:30:49.797Z,4.40
2023-01-04T19:35:00.453Z,3.70
2023-01-04T19:44:39.960Z,1.08
2023-01-04T19:53:19.188Z,0.95
2023-01-04T19:57:26.884Z,0.73
2023-01-04T20:01:32.027Z,0.98
2023-01-04T20:05:36.655Z,0.55
2023-01-04T20:09:40.252Z,0.77
2023-01-04T20:13:45.774Z,0.57
2023-01-04T20:17:50.291Z,0.52
2023-01-04T20:21:56.369Z,0.57
2023-01-04T20:25:59.826Z,0.50
2023-01-04T20:30:29.937Z,0.40
2023-01-04T20:35:04.552Z,0.40
2023-01-04T20:39:11.111Z,0.38
2023-01-04T20:43:35.884Z,0.40
2023-01-04T20:47:43.063Z,0.70
2023-01-04T20:51:55.435Z,0.50
2023-01-04T20:55:58.385Z,0.90
2023-01-04T21:00:03.071Z,0.50
2023-01-04T21:04:06.702Z,0.50
2023-01-04T21:08:14.407Z,0.40
2023-01-04T21:12:18.139Z,0.40
2023-01-04T21:16:22.895Z,0.38
2023-01-04T21:20:29.542Z,0.38
2023-01-04T21:24:40.215Z,0.40
2023-01-04T21:28:44.848Z,0.30
2023-01-04T21:32:49.722Z,0.40
2023-01-04T21:36:54.320Z,0.30
2023-01-04T21:41:02.930Z,0.30
2023-01-04T21:45:08.864Z,0.25
2023-01-04T21:49:17.662Z,0.30
2023-01-04T21:53:25.417Z,0.30
2023-01-04T21:57:29.945Z,0.30
2023-01-04T22:01:35.418Z,0.30
2023-01-04T22:05:39.787Z,0.40
2023-01-04T22:09:45.633Z,0.30
2023-01-04T22:13:58.176Z,0.40
2023-01-04T22:18:05.147Z,0.75
2023-01-04T22:22:08.849Z,0.35
2023-01-04T22:26:13.246Z,0.47
2023-01-04T22:30:19.938Z,0.50
2023-01-04T22:34:25.002Z,0.30
2023-01-04T22:38:28.520Z,0.30
2023-01-04T22:42:31.605Z,0.40
2023-01-04T22:46:37.125Z,0.20
2023-01-04T22:50:40.379Z,0.30
2023-01-04T22:54:44.074Z,0.20
2023-01-04T22:58:53.879Z,0.30
2023-01-04T23:02:59.799Z,0.20
2023-01-04T23:07:03.058Z,0.20
2023-01-04T23:11:07.561Z,0.28
2023-01-04T23:15:11.726Z,0.20
2023-01-04T23:19:16.256Z,0.30
2023-01-04T23:23:19.416Z,0.20
2023-01-04T23:27:22.572Z,0.20
2023-01-04T23:31:29.835Z,0.30
2023-01-04T23:35:34.648Z,0.40
2023-01-04T23:39:37.846Z,0.10
2023-01-04T23:43:41.162Z,0.20
2023-01-04T23:47:44.673Z,0.10
2023-01-04T23:51:49.041Z,0.10
2023-01-04T23:56:04.477Z,0.17
